Portada
METAR-TAF:

METAR-TAF

Aeropuertos :

Chitá, Rusia

Aeropuerto de Chitá-Kadala

latitud: 52-05N, longitud: 113-29E, altitud: 685 m

Observación

El informe se hizo hace 21 minutos, a las 01:00 UTC
Viento 12 kt del norte-noroeste
Temperatura 14°C
Humedad 26%
Presión 1015 hPa
Visibilidad 10 km o más

METAR: UIAA 270100Z 33006MPS 9999 NSC 14/M05 Q1015 R29/70D NOSIG RMK QFE702

Hora: 10:21 (01:21 UTC)

Pronóstico

El informe se hizo hace 2 horas y 21 minutos, a las 23:00 UTC
Pronóstico válido del 27 a las 00 UTC al 27 a las 24 UTC
Viento 16 kt del noroeste con ráfagas de 29 kt
Visibilidad 10 km o más
Cielo nuboso a una altura de 3300 ft, Cumulonimbus.

TAF: UIAA 262300Z 2700/2724 32008G15MPS 9999 BKN033CB

Observaciones y pronósticos meteorológicos de más de 4000 aeropuertos (mensajes METAR y TAF).

Los puntos amarillos y rojos representan las estaciones disponibles.

Ponga el ratón en el punto deseado para ver el nombre de la estación.

Haga clic para ver las observaciones y los pronósticos meteorológicos.

Para cambiar el mapa : haga clic en los botones verdes con una cruz de color negro para hacer un zoom, en el botón verde con un guión para alejar o en las flechas verdes para mapas adyacentes.


METAR-TAF: